createdAt,value
2023-02-03T00:01:03.960Z,101284.41
2023-02-03T00:03:30.370Z,101286.63
2023-02-03T00:05:58.171Z,101279.13
2023-02-03T00:08:24.539Z,101265.50
2023-02-03T00:10:50.996Z,101268.91
2023-02-03T00:13:17.524Z,101278.75
2023-02-03T00:15:43.879Z,101266.53
2023-02-03T00:18:10.349Z,101262.56
2023-02-03T00:20:36.730Z,101261.75
2023-02-03T00:23:05.800Z,101256.50
2023-02-03T00:25:32.235Z,101242.38
2023-02-03T00:27:58.652Z,101237.69
2023-02-03T00:30:25.434Z,101246.16
2023-02-03T00:32:51.989Z,101240.97
2023-02-03T00:35:18.430Z,101237.84
2023-02-03T00:37:50.321Z,101245.28
2023-02-03T00:40:18.579Z,101243.22
2023-02-03T00:42:44.948Z,101252.50
2023-02-03T00:45:11.609Z,101259.13
2023-02-03T00:47:38.181Z,101248.19
2023-02-03T00:50:05.570Z,101248.44
2023-02-03T00:52:32.060Z,101238.47
2023-02-03T00:54:58.666Z,101237.41
2023-02-03T00:57:26.428Z,101226.84
2023-02-03T00:59:52.832Z,101249.28
2023-02-03T01:02:19.243Z,101228.56
2023-02-03T01:04:45.716Z,101231.25
2023-02-03T01:07:12.519Z,101225.78
2023-02-03T01:09:39.155Z,101211.81
2023-02-03T01:12:06.100Z,101221.84
2023-02-03T01:14:34.137Z,101226.72
2023-02-03T01:17:01.233Z,101238.41
2023-02-03T01:19:27.686Z,101241.19
2023-02-03T01:21:54.141Z,101237.88
2023-02-03T01:24:20.519Z,101235.16
2023-02-03T01:26:46.872Z,101245.16
2023-02-03T01:29:14.080Z,101237.69
2023-02-03T01:31:42.244Z,101243.75
2023-02-03T01:34:12.542Z,101235.72
2023-02-03T01:36:39.391Z,101233.47
2023-02-03T01:39:06.336Z,101236.59
2023-02-03T01:41:34.981Z,101233.22
2023-02-03T01:44:02.663Z,101227.94
2023-02-03T01:46:33.657Z,101240.16
2023-02-03T01:49:08.066Z,101243.44
2023-02-03T01:51:35.392Z,101224.97
2023-02-03T01:54:02.684Z,101216.38
2023-02-03T01:56:34.993Z,101213.84
2023-02-03T01:59:01.573Z,101208.06
2023-02-03T02:01:30.107Z,101206.97
2023-02-03T02:03:59.631Z,101203.13
2023-02-03T02:06:27.431Z,101193.16
2023-02-03T02:08:56.312Z,101190.38
2023-02-03T02:11:22.691Z,101177.69
2023-02-03T02:13:52.212Z,101168.84
2023-02-03T02:16:30.709Z,101158.59
2023-02-03T02:19:17.952Z,101168.25
2023-02-03T02:21:57.976Z,101167.16
2023-02-03T02:25:06.074Z,101152.53
2023-02-03T02:28:10.542Z,101133.97
2023-02-03T02:30:47.346Z,101151.41
2023-02-03T02:33:26.044Z,101132.88
2023-02-03T02:35:58.106Z,101132.59
2023-02-03T02:38:37.169Z,101148.06
2023-02-03T02:41:07.959Z,101131.22
2023-02-03T02:43:40.769Z,101133.97
2023-02-03T02:46:11.615Z,101139.22
2023-02-03T02:48:44.542Z,101135.38
2023-02-03T02:51:13.296Z,101138.69
2023-02-03T02:53:44.269Z,101125.69
2023-02-03T02:56:15.306Z,101116.28
2023-02-03T02:58:46.431Z,101104.41
2023-02-03T03:01:13.316Z,101102.44
2023-02-03T03:03:41.119Z,101109.09
2023-02-03T03:06:10.568Z,101113.25
2023-02-03T03:08:41.773Z,101120.44
2023-02-03T03:11:08.420Z,101115.19
2023-02-03T03:13:38.889Z,101113.50
2023-02-03T03:16:07.359Z,101121.22
2023-02-03T03:18:38.690Z,101133.69
2023-02-03T03:21:07.699Z,101126.53
2023-02-03T03:23:38.208Z,101136.47
2023-02-03T03:26:09.853Z,101117.09
2023-02-03T03:28:45.333Z,101112.66
2023-02-03T03:31:11.876Z,101114.34
2023-02-03T03:33:38.995Z,101101.84
2023-02-03T03:36:15.448Z,101089.72
2023-02-03T03:38:45.947Z,101097.72
2023-02-03T03:41:19.677Z,101086.94
2023-02-03T03:43:47.088Z,101098.00
2023-02-03T03:46:18.833Z,101086.97
2023-02-03T03:48:51.084Z,101087.53
2023-02-03T03:51:23.206Z,101072.06
2023-02-03T03:53:51.377Z,101075.63
2023-02-03T03:56:22.113Z,101080.59
2023-02-03T03:58:50.586Z,101068.38
2023-02-03T04:01:17.923Z,101066.78
2023-02-03T04:03:48.189Z,101063.66
2023-02-03T04:06:15.346Z,101078.94
2023-02-03T04:08:43.083Z,101062.34
2023-02-03T04:11:09.434Z,101064.56
2023-02-03T04:13:35.947Z,101046.00
2023-02-03T04:16:02.432Z,101054.63
2023-02-03T04:18:28.865Z,101058.75
2023-02-03T04:20:55.261Z,101060.44
2023-02-03T04:23:21.630Z,101049.63
2023-02-03T04:25:49.314Z,101060.69
2023-02-03T04:28:15.823Z,101056.25
2023-02-03T04:30:42.262Z,101061.41
2023-02-03T04:33:08.676Z,101063.75
2023-02-03T04:35:35.104Z,101054.56
2023-02-03T04:38:01.491Z,101047.69
2023-02-03T04:40:28.136Z,101059.00
2023-02-03T04:42:56.037Z,101057.94
2023-02-03T04:45:22.532Z,101048.47
2023-02-03T04:47:54.118Z,101056.81
2023-02-03T04:50:20.885Z,101053.78
2023-02-03T04:52:47.297Z,101046.00
2023-02-03T04:55:13.701Z,101037.72
2023-02-03T04:57:40.457Z,101041.06
2023-02-03T05:00:10.132Z,101036.34
2023-02-03T05:02:36.509Z,101040.53
2023-02-03T05:05:03.121Z,101033.84
2023-02-03T05:07:29.491Z,101031.38
2023-02-03T05:09:55.878Z,101015.59
2023-02-03T05:12:22.341Z,101009.53
2023-02-03T05:14:48.713Z,101020.59
2023-02-03T05:17:16.399Z,101007.38
2023-02-03T05:19:42.788Z,101003.44
2023-02-03T05:22:09.142Z,100999.06
2023-02-03T05:24:35.553Z,100999.31
2023-02-03T05:27:01.981Z,100986.28
2023-02-03T05:29:28.345Z,100995.97
2023-02-03T05:31:54.785Z,100980.13
2023-02-03T05:34:22.593Z,100987.38
2023-02-03T05:36:48.997Z,100984.88
2023-02-03T05:39:15.428Z,100981.81
2023-02-03T05:41:41.809Z,100976.31
2023-02-03T05:44:08.198Z,100982.63
2023-02-03T05:46:34.789Z,100973.00
2023-02-03T05:49:01.301Z,100984.09
2023-02-03T05:51:29.044Z,100984.34
2023-02-03T05:53:55.473Z,101004.59
2023-02-03T05:56:21.879Z,100986.59
2023-02-03T05:58:48.345Z,100976.13
2023-02-03T06:01:14.764Z,100978.59
2023-02-03T06:03:43.191Z,100970.81
2023-02-03T06:06:10.869Z,100978.81
2023-02-03T06:08:38.596Z,100988.28
2023-02-03T06:11:05.078Z,100991.03
2023-02-03T06:13:31.444Z,100985.53
2023-02-03T06:15:57.796Z,100993.78
2023-02-03T06:18:24.359Z,100994.00
2023-02-03T06:20:51.236Z,100991.81
2023-02-03T06:23:18.230Z,100990.78
2023-02-03T06:25:48.157Z,100996.56
2023-02-03T06:28:14.739Z,100992.97
2023-02-03T06:30:41.328Z,100987.72
2023-02-03T06:33:07.859Z,100983.03
2023-02-03T06:35:34.434Z,100988.31
2023-02-03T06:38:01.693Z,101001.84
2023-02-03T06:40:28.445Z,100987.47
2023-02-03T06:42:56.473Z,100991.34
2023-02-03T06:45:22.964Z,100978.31
2023-02-03T06:47:49.400Z,100987.47
2023-02-03T06:50:16.059Z,100984.97
2023-02-03T06:52:42.660Z,100980.81
2023-02-03T06:55:09.699Z,100971.97
2023-02-03T06:57:36.117Z,100969.22
2023-02-03T07:00:05.008Z,100962.31
2023-02-03T07:02:31.477Z,100962.34
2023-02-03T07:04:57.902Z,100952.38
2023-02-03T07:07:24.278Z,100953.22
2023-02-03T07:09:50.800Z,100952.38
2023-02-03T07:12:17.221Z,100952.34
2023-02-03T07:14:43.589Z,100962.59
2023-02-03T07:17:11.327Z,100959.28
2023-02-03T07:19:37.676Z,100955.97
2023-02-03T07:22:04.135Z,100948.78
2023-02-03T07:24:30.565Z,100957.88
2023-02-03T07:26:56.959Z,100955.13
2023-02-03T07:29:23.461Z,100941.88
2023-02-03T07:31:50.144Z,100946.00
2023-02-03T07:34:17.905Z,100940.47
2023-02-03T07:36:44.287Z,100932.19
2023-02-03T07:39:10.679Z,100944.31
2023-02-03T07:41:37.093Z,100930.00
2023-02-03T07:44:03.981Z,100913.94
2023-02-03T07:46:30.433Z,100921.13
2023-02-03T07:48:56.859Z,100928.28
2023-02-03T07:51:24.549Z,100923.63
2023-02-03T07:53:51.005Z,100937.19
2023-02-03T07:56:17.409Z,100934.13
2023-02-03T07:58:43.871Z,100925.06
2023-02-03T08:01:12.182Z,100925.03
2023-02-03T08:03:38.594Z,100919.25
2023-02-03T08:06:05.550Z,100917.28
2023-02-03T08:08:33.283Z,100915.34
2023-02-03T08:10:59.661Z,100927.22
2023-02-03T08:13:26.288Z,100922.22
2023-02-03T08:15:52.933Z,100928.34
2023-02-03T08:18:19.829Z,100925.59
2023-02-03T08:20:47.343Z,100931.66
2023-02-03T08:23:14.209Z,100914.50
2023-02-03T08:25:42.018Z,100903.69
2023-02-03T08:28:08.473Z,100907.81
2023-02-03T08:30:35.678Z,100908.63
2023-02-03T08:33:02.111Z,100925.75
2023-02-03T08:35:28.532Z,100918.34
2023-02-03T08:37:54.980Z,100924.97
2023-02-03T08:40:21.569Z,100929.28
2023-02-03T08:42:49.575Z,100930.31
2023-02-03T08:45:15.974Z,100922.66
2023-02-03T08:47:42.556Z,100927.34
2023-02-03T08:50:10.007Z,100909.38
2023-02-03T08:52:36.585Z,100915.19
2023-02-03T08:55:03.255Z,100921.56
2023-02-03T08:57:32.511Z,100928.78
2023-02-03T09:00:00.605Z,100913.56
2023-02-03T09:02:27.029Z,100933.47
2023-02-03T09:04:53.508Z,100922.69
2023-02-03T09:07:19.956Z,100926.56
2023-02-03T09:09:46.343Z,100922.38
2023-02-03T09:12:12.851Z,100921.91
2023-02-03T09:14:39.301Z,100931.47
2023-02-03T09:17:07.369Z,100928.94
2023-02-03T09:19:36.332Z,100943.09
2023-02-03T09:22:06.370Z,100935.31
2023-02-03T09:24:33.086Z,100935.78
2023-02-03T09:26:59.448Z,100931.72
2023-02-03T09:29:25.952Z,100935.22
2023-02-03T09:31:52.467Z,100922.94
2023-02-03T09:34:20.897Z,100915.28
2023-02-03T09:36:47.499Z,100908.56
2023-02-03T09:39:13.943Z,100919.16
2023-02-03T09:41:50.971Z,100910.44
2023-02-03T09:44:22.375Z,100917.25
2023-02-03T09:46:54.270Z,100914.00
2023-02-03T09:49:26.906Z,100915.38
2023-02-03T09:51:58.567Z,100924.13
2023-02-03T09:54:34.621Z,100927.50
2023-02-03T09:57:05.471Z,100943.03
2023-02-03T09:59:35.028Z,100934.97
2023-02-03T10:02:18.646Z,100926.72
2023-02-03T10:04:56.830Z,100911.47
2023-02-03T10:07:33.967Z,100920.91
2023-02-03T10:10:11.991Z,100912.19
2023-02-03T10:12:57.579Z,100921.47
2023-02-03T10:15:43.932Z,100929.16
2023-02-03T10:18:14.486Z,100917.56
2023-02-03T10:20:46.546Z,100939.09
2023-02-03T10:23:17.129Z,100927.50
2023-02-03T10:25:47.811Z,100944.88
2023-02-03T10:28:18.292Z,100940.19
2023-02-03T10:30:49.676Z,100954.69
2023-02-03T10:33:18.553Z,100945.81
2023-02-03T10:35:50.509Z,100983.56
2023-02-03T10:38:29.015Z,100960.16
2023-02-03T10:40:55.683Z,100967.00
2023-02-03T10:43:22.129Z,100968.50
2023-02-03T10:45:48.544Z,100982.91
2023-02-03T10:48:17.921Z,100976.25
2023-02-03T10:50:50.229Z,100963.03
2023-02-03T10:53:22.761Z,100984.34
2023-02-03T10:55:52.136Z,100989.88
2023-02-03T10:58:26.714Z,100995.38
2023-02-03T11:00:56.752Z,100990.84
2023-02-03T11:03:26.190Z,100989.19
2023-02-03T11:06:09.596Z,100995.41
2023-02-03T11:08:38.001Z,101000.84
2023-02-03T11:11:07.063Z,100998.63
2023-02-03T11:13:33.667Z,101008.84
2023-02-03T11:16:02.688Z,101011.69
2023-02-03T11:18:37.303Z,101005.53
2023-02-03T11:21:10.381Z,101017.31
2023-02-03T11:23:37.741Z,101020.66
2023-02-03T11:26:13.627Z,101016.47
2023-02-03T11:28:43.138Z,101025.53
2023-02-03T11:31:18.451Z,101021.25
2023-02-03T11:33:48.034Z,101029.47
2023-02-03T11:36:17.532Z,101021.66
2023-02-03T11:38:44.021Z,101028.75
2023-02-03T11:41:16.697Z,101020.00
2023-02-03T11:43:43.167Z,101022.00
2023-02-03T11:46:09.789Z,101026.00
2023-02-03T11:48:38.493Z,101025.66
2023-02-03T11:51:17.925Z,101030.94
2023-02-03T11:54:02.888Z,101028.41
2023-02-03T11:56:47.167Z,101031.78
2023-02-03T11:59:28.152Z,101033.66
2023-02-03T12:02:11.271Z,101041.97
2023-02-03T12:05:11.699Z,101041.03
2023-02-03T12:07:52.007Z,101037.09
2023-02-03T12:10:34.851Z,101040.38
2023-02-03T12:13:11.895Z,101037.22
2023-02-03T12:15:51.652Z,101040.06
2023-02-03T12:18:35.862Z,101046.88
2023-02-03T12:21:12.942Z,101045.88
2023-02-03T12:23:48.173Z,101057.31
2023-02-03T12:26:21.953Z,101053.66
2023-02-03T12:28:54.059Z,101075.69
2023-02-03T12:31:27.839Z,101045.31
2023-02-03T12:34:00.822Z,101064.78
2023-02-03T12:36:32.956Z,101049.81
2023-02-03T12:39:06.549Z,101058.69
2023-02-03T12:41:40.554Z,101063.13
2023-02-03T12:44:15.904Z,101077.66
2023-02-03T12:46:46.175Z,101077.91
2023-02-03T12:49:29.077Z,101071.19
2023-02-03T12:52:00.198Z,101093.09
2023-02-03T12:54:37.219Z,101088.03
2023-02-03T12:57:14.070Z,101086.44
2023-02-03T12:59:42.278Z,101081.63
2023-02-03T13:02:16.114Z,101071.75
2023-02-03T13:04:49.310Z,101077.53
2023-02-03T13:07:21.622Z,101076.31
2023-02-03T13:09:54.628Z,101083.50
2023-02-03T13:12:28.691Z,101083.03
2023-02-03T13:14:59.405Z,101092.97
2023-02-03T13:17:29.239Z,101098.44
2023-02-03T13:20:00.396Z,101096.84
2023-02-03T13:22:26.757Z,101108.91
2023-02-03T13:24:59.496Z,101099.03
2023-02-03T13:27:43.782Z,101104.31
2023-02-03T13:30:40.113Z,101105.00
2023-02-03T13:33:24.374Z,101102.78
2023-02-03T13:36:03.329Z,101097.09
2023-02-03T13:38:52.114Z,101111.22
2023-02-03T13:41:24.615Z,101100.75
2023-02-03T13:43:54.180Z,101094.16
2023-02-03T13:46:24.626Z,101105.16
2023-02-03T13:48:52.691Z,101103.97
2023-02-03T13:51:22.574Z,101100.88
2023-02-03T13:53:52.301Z,101116.59
2023-02-03T13:56:21.771Z,101105.97
2023-02-03T13:59:02.432Z,101113.09
2023-02-03T14:01:32.323Z,101112.56
2023-02-03T14:03:58.812Z,101119.78
2023-02-03T14:06:56.407Z,101122.22
2023-02-03T14:09:34.099Z,101109.31
2023-02-03T14:12:20.655Z,101115.47
2023-02-03T14:15:00.428Z,101123.25
2023-02-03T14:17:55.773Z,101158.44
2023-02-03T14:20:43.089Z,101137.72
2023-02-03T14:23:16.475Z,101141.03
2023-02-03T14:25:46.870Z,101165.81
2023-02-03T14:28:16.854Z,101152.63
2023-02-03T14:31:06.848Z,101160.59
2023-02-03T14:33:53.464Z,101162.38
2023-02-03T14:36:28.307Z,101169.81
2023-02-03T14:38:56.215Z,101175.97
2023-02-03T14:41:29.827Z,101168.13
2023-02-03T14:44:07.136Z,101171.81
2023-02-03T14:46:55.333Z,101170.44
2023-02-03T14:49:41.437Z,101186.72
2023-02-03T14:52:20.878Z,101174.53
2023-02-03T14:55:10.856Z,101185.81
2023-02-03T14:57:42.698Z,101193.13
2023-02-03T15:00:26.744Z,101200.31
2023-02-03T15:03:11.610Z,101201.34
2023-02-03T15:05:41.594Z,101205.84
2023-02-03T15:08:33.656Z,101210.81
2023-02-03T15:11:14.396Z,101203.38
2023-02-03T15:13:40.824Z,101209.75
2023-02-03T15:16:14.935Z,101207.25
2023-02-03T15:18:41.936Z,101206.38
2023-02-03T15:21:17.450Z,101214.75
2023-02-03T15:23:45.829Z,101218.88
2023-02-03T15:26:13.867Z,101219.16
2023-02-03T15:28:40.392Z,101207.50
2023-02-03T15:31:15.265Z,101225.25
2023-02-03T15:33:42.870Z,101224.97
2023-02-03T15:36:18.118Z,101231.91
2023-02-03T15:38:49.733Z,101244.88
2023-02-03T15:41:22.804Z,101251.53
2023-02-03T15:43:52.994Z,101259.84
2023-02-03T15:46:26.103Z,101252.88
2023-02-03T15:48:57.925Z,101262.63
2023-02-03T15:51:31.352Z,101259.56
2023-02-03T15:54:01.848Z,101262.31
2023-02-03T15:56:35.828Z,101251.22
2023-02-03T15:59:02.370Z,101267.31
2023-02-03T16:01:28.916Z,101277.81
2023-02-03T16:03:56.896Z,101280.28
2023-02-03T16:06:28.261Z,101289.44
2023-02-03T16:08:55.365Z,101298.00
2023-02-03T16:11:24.465Z,101300.47
2023-02-03T16:13:51.250Z,101300.94
2023-02-03T16:16:22.130Z,101303.28
2023-02-03T16:18:53.481Z,101318.50
2023-02-03T16:21:29.109Z,101316.00
2023-02-03T16:23:55.670Z,101311.31
2023-02-03T16:26:23.523Z,101323.19
2023-02-03T16:29:02.662Z,101319.63
2023-02-03T16:31:29.155Z,101327.84
2023-02-03T16:33:55.565Z,101314.28
2023-02-03T16:36:22.079Z,101327.84
2023-02-03T16:38:50.707Z,101322.88
2023-02-03T16:41:17.833Z,101327.41
2023-02-03T16:43:45.495Z,101338.59
2023-02-03T16:46:12.256Z,101333.09
2023-02-03T16:48:38.807Z,101339.19
2023-02-03T16:51:10.914Z,101348.28
2023-02-03T16:53:37.361Z,101346.25
2023-02-03T16:56:05.901Z,101339.84
2023-02-03T16:58:32.382Z,101345.38
2023-02-03T17:01:00.675Z,101342.19
2023-02-03T17:03:28.231Z,101349.66
2023-02-03T17:05:55.934Z,101351.53
2023-02-03T17:08:24.105Z,101344.69
2023-02-03T17:10:50.681Z,101341.88
2023-02-03T17:13:22.485Z,101332.97
2023-02-03T17:15:51.149Z,101344.31
2023-02-03T17:18:17.552Z,101336.06
2023-02-03T17:20:45.413Z,101337.31
2023-02-03T17:23:13.064Z,101321.81
2023-02-03T17:25:40.107Z,101333.91
2023-02-03T17:28:08.545Z,101339.25
2023-02-03T17:30:36.434Z,101351.56
2023-02-03T17:33:04.184Z,101342.31
2023-02-03T17:35:30.973Z,101366.00
2023-02-03T17:37:57.523Z,101348.69
2023-02-03T17:54:06.855Z,101395.03
2023-02-03T17:56:34.484Z,101384.78
2023-02-03T17:59:03.447Z,101383.63
2023-02-03T18:01:31.675Z,101396.63
2023-02-03T18:03:59.726Z,101402.34
2023-02-03T18:06:28.819Z,101393.72
2023-02-03T18:08:55.203Z,101388.09
2023-02-03T18:11:21.539Z,101382.78
2023-02-03T18:13:49.440Z,101378.38
2023-02-03T18:16:17.707Z,101388.19
2023-02-03T18:18:45.629Z,101388.66
2023-02-03T18:21:14.309Z,101403.63
2023-02-03T18:23:41.244Z,101421.56
2023-02-03T18:26:09.985Z,101421.53
2023-02-03T18:28:37.124Z,101429.75
2023-02-03T18:31:05.948Z,101435.28
2023-02-03T18:33:32.639Z,101430.66
2023-02-03T18:36:01.142Z,101432.50
2023-02-03T18:38:28.533Z,101427.56
2023-02-03T18:40:54.904Z,101442.47
2023-02-03T18:43:21.443Z,101447.75
2023-02-03T18:45:47.922Z,101442.72
2023-02-03T18:48:14.335Z,101452.84
2023-02-03T18:50:40.988Z,101457.94
2023-02-03T18:53:08.860Z,101469.50
2023-02-03T18:55:35.226Z,101473.97
2023-02-03T18:58:01.613Z,101481.16
2023-02-03T19:00:28.884Z,101497.34
2023-02-03T19:02:55.530Z,101497.97
2023-02-03T19:05:22.056Z,101511.59
2023-02-03T19:07:48.475Z,101503.63
2023-02-03T19:10:16.858Z,101509.88
2023-02-03T19:12:43.347Z,101516.47
2023-02-03T19:15:10.534Z,101509.31
2023-02-03T19:17:37.085Z,101511.16
2023-02-03T19:20:03.699Z,101523.53
2023-02-03T19:22:31.458Z,101524.25
2023-02-03T19:24:58.130Z,101527.47
2023-02-03T19:27:25.880Z,101536.94
2023-02-03T19:29:52.265Z,101527.66
2023-02-03T19:32:18.644Z,101528.66
2023-02-03T19:34:45.047Z,101523.63
2023-02-03T19:37:11.436Z,101534.34
2023-02-03T19:39:37.775Z,101526.56
2023-02-03T19:42:04.262Z,101522.38
2023-02-03T19:44:31.941Z,101539.94
2023-02-03T19:46:58.314Z,101528.66
2023-02-03T19:49:24.876Z,101540.31
2023-02-03T19:51:51.311Z,101542.03
2023-02-03T19:54:17.710Z,101527.47
2023-02-03T19:56:44.805Z,101546.66
2023-02-03T19:59:11.205Z,101543.38
2023-02-03T20:01:38.965Z,101558.97
2023-02-03T20:04:05.510Z,101547.19
2023-02-03T20:06:31.983Z,101562.72
2023-02-03T20:08:58.362Z,101567.19
2023-02-03T20:11:25.097Z,101555.00
2023-02-03T20:13:51.849Z,101567.53
2023-02-03T20:16:18.386Z,101580.00
2023-02-03T20:18:46.147Z,101590.81
2023-02-03T20:21:12.686Z,101592.81
2023-02-03T20:23:39.084Z,101583.81
2023-02-03T20:26:06.249Z,101598.28
2023-02-03T20:28:32.662Z,101587.22
2023-02-03T20:31:01.385Z,101593.16
2023-02-03T20:33:29.582Z,101597.66
2023-02-03T20:35:57.473Z,101603.88
2023-02-03T20:38:24.512Z,101596.00
2023-02-03T20:40:50.953Z,101611.97
2023-02-03T20:43:19.705Z,101619.50
2023-02-03T20:45:46.109Z,101621.81
2023-02-03T20:48:14.131Z,101611.53
2023-02-03T20:50:42.933Z,101627.53
2023-02-03T20:53:14.227Z,101633.13
2023-02-03T20:55:40.964Z,101634.78
2023-02-03T20:58:15.374Z,101640.09
2023-02-03T21:00:41.751Z,101642.03
2023-02-03T21:03:09.566Z,101654.53
2023-02-03T21:05:37.967Z,101652.44
2023-02-03T21:08:10.959Z,101654.38
2023-02-03T21:10:38.836Z,101675.94
2023-02-03T21:13:17.754Z,101665.22
2023-02-03T21:15:44.191Z,101673.81
2023-02-03T21:18:24.815Z,101671.38
2023-02-03T21:20:51.255Z,101674.28
2023-02-03T21:23:17.636Z,101668.91
2023-02-03T21:25:45.307Z,101681.22
2023-02-03T21:28:23.637Z,101678.19
2023-02-03T21:30:50.028Z,101680.72
2023-02-03T21:33:29.458Z,101689.53
2023-02-03T21:35:55.853Z,101690.13
2023-02-03T21:38:27.292Z,101703.19
2023-02-03T21:40:55.186Z,101708.38
2023-02-03T21:43:22.868Z,101707.09
2023-02-03T21:45:49.644Z,101697.97
2023-02-03T21:48:28.483Z,101728.06
2023-02-03T21:50:56.464Z,101729.94
2023-02-03T21:53:29.200Z,101732.66
2023-02-03T21:56:10.829Z,101734.59
2023-02-03T21:58:37.721Z,101746.22
2023-02-03T22:01:05.560Z,101742.75
2023-02-03T22:03:36.185Z,101747.34
2023-02-03T22:06:15.864Z,101749.16
2023-02-03T22:08:43.956Z,101757.03
2023-02-03T22:11:12.105Z,101757.06
2023-02-03T22:13:38.974Z,101767.84
2023-02-03T22:16:05.900Z,101770.88
2023-02-03T22:18:32.247Z,101775.69
2023-02-03T22:20:58.863Z,101782.25
2023-02-03T22:23:25.304Z,101780.78
2023-02-03T22:25:51.925Z,101781.94
2023-02-03T22:28:19.744Z,101783.03
2023-02-03T22:30:46.310Z,101789.34
2023-02-03T22:33:12.724Z,101799.88
2023-02-03T22:35:39.309Z,101802.81
2023-02-03T22:38:05.680Z,101818.00
2023-02-03T22:40:32.426Z,101818.81
2023-02-03T22:42:58.973Z,101822.41
2023-02-03T22:45:26.840Z,101833.75
2023-02-03T22:47:53.541Z,101851.97
2023-02-03T22:50:27.430Z,101875.41
2023-02-03T22:53:01.603Z,101885.31
2023-02-03T22:55:27.961Z,101881.56
2023-02-03T22:57:54.318Z,101873.13
2023-02-03T23:00:23.100Z,101875.47
2023-02-03T23:02:51.402Z,101881.28
2023-02-03T23:05:18.601Z,101886.78
2023-02-03T23:07:45.870Z,101902.31
2023-02-03T23:10:16.052Z,101900.69
2023-02-03T23:12:43.517Z,101901.19
2023-02-03T23:15:10.478Z,101903.16
2023-02-03T23:17:37.062Z,101907.00
2023-02-03T23:20:05.788Z,101915.75
2023-02-03T23:22:32.167Z,101924.38
2023-02-03T23:24:59.100Z,101930.78
2023-02-03T23:27:25.701Z,101954.81
2023-02-03T23:29:52.156Z,101953.88
2023-02-03T23:32:18.516Z,101963.50
2023-02-03T23:34:44.903Z,101955.72
2023-02-03T23:37:12.557Z,101964.44
2023-02-03T23:39:38.928Z,101965.38
2023-02-03T23:42:05.415Z,101975.94
2023-02-03T23:44:31.796Z,101983.25
2023-02-03T23:46:58.161Z,101980.28
2023-02-03T23:49:24.711Z,101990.59
2023-02-03T23:51:51.083Z,102000.72
2023-02-03T23:54:18.820Z,102006.00
2023-02-03T23:56:45.175Z,102009.91
2023-02-03T23:59:11.917Z,102022.25
